sensor_id;sensor_type;location;lat;lon;timestamp;pressure;altitude;pressure_sealevel;temperature;humidity
58082;BME280;43876;55.576;38.242;2022-07-19T00:02:12;99591.16;;;15.33;68.84
58082;BME280;43876;55.576;38.242;2022-07-19T00:04:39;99580.91;;;15.21;68.68
58082;BME280;43876;55.576;38.242;2022-07-19T00:07:06;99587.84;;;15.25;68.98
58082;BME280;43876;55.576;38.242;2022-07-19T00:09:34;99551.50;;;15.01;69.07
58082;BME280;43876;55.576;38.242;2022-07-19T00:12:01;99570.63;;;15.09;69.25
58082;BME280;43876;55.576;38.242;2022-07-19T00:14:28;99590.69;;;15.14;69.32
58082;BME280;43876;55.576;38.242;2022-07-19T00:16:55;99589.13;;;15.06;69.86
58082;BME280;43876;55.576;38.242;2022-07-19T00:19:22;99600.59;;;15.02;69.64
58082;BME280;43876;55.576;38.242;2022-07-19T00:21:49;99598.06;;;14.95;70.15
58082;BME280;43876;55.576;38.242;2022-07-19T00:24:18;99585.09;;;14.86;70.58
58082;BME280;43876;55.576;38.242;2022-07-19T00:26:45;99547.88;;;14.60;70.16
58082;BME280;43876;55.576;38.242;2022-07-19T00:29:12;99546.22;;;14.54;70.58
58082;BME280;43876;55.576;38.242;2022-07-19T00:31:39;99588.03;;;14.69;70.99
58082;BME280;43876;55.576;38.242;2022-07-19T00:34:06;99586.38;;;14.64;70.86
58082;BME280;43876;55.576;38.242;2022-07-19T00:36:33;99589.00;;;14.62;71.26
58082;BME280;43876;55.576;38.242;2022-07-19T00:39:00;99594.34;;;14.58;71.40
58082;BME280;43876;55.576;38.242;2022-07-19T00:41:27;99577.88;;;14.45;71.76
58082;BME280;43876;55.576;38.242;2022-07-19T00:43:56;99607.63;;;14.47;71.72
58082;BME280;43876;55.576;38.242;2022-07-19T00:46:23;99605.94;;;14.43;71.93
58082;BME280;43876;55.576;38.242;2022-07-19T00:48:50;99593.81;;;14.36;72.40
58082;BME280;43876;55.576;38.242;2022-07-19T00:51:18;99577.31;;;14.27;72.49
58082;BME280;43876;55.576;38.242;2022-07-19T00:53:45;99587.00;;;14.24;72.39
58082;BME280;43876;55.576;38.242;2022-07-19T00:56:13;99596.63;;;14.25;72.38
58082;BME280;43876;55.576;38.242;2022-07-19T00:58:41;99594.91;;;14.22;72.39
58082;BME280;43876;55.576;38.242;2022-07-19T01:01:09;99603.72;;;14.18;72.47
58082;BME280;43876;55.576;38.242;2022-07-19T01:03:38;99561.19;;;13.95;72.60
58082;BME280;43876;55.576;38.242;2022-07-19T01:06:07;99610.78;;;14.14;72.45
58082;BME280;43876;55.576;38.242;2022-07-19T01:08:36;99602.91;;;14.13;72.59
58082;BME280;43876;55.576;38.242;2022-07-19T01:11:05;99598.66;;;14.04;72.67
58082;BME280;43876;55.576;38.242;2022-07-19T01:13:33;99602.13;;;14.06;72.55
58082;BME280;43876;55.576;38.242;2022-07-19T01:16:00;99600.38;;;14.08;72.76
58082;BME280;43876;55.576;38.242;2022-07-19T01:18:28;99571.78;;;13.90;72.77
58082;BME280;43876;55.576;38.242;2022-07-19T01:20:56;99596.16;;;13.98;72.92
58082;BME280;43876;55.576;38.242;2022-07-19T01:23:24;99570.09;;;13.83;72.91
58082;BME280;43876;55.576;38.242;2022-07-19T01:25:51;99605.69;;;14.02;72.69
58082;BME280;43876;55.576;38.242;2022-07-19T01:28:18;99615.34;;;14.03;72.75
58082;BME280;43876;55.576;38.242;2022-07-19T01:30:45;99601.44;;;13.95;72.72
58082;BME280;43876;55.576;38.242;2022-07-19T01:33:12;99579.75;;;13.81;72.63
58082;BME280;43876;55.576;38.242;2022-07-19T01:35:39;99615.47;;;13.94;72.74
58082;BME280;43876;55.576;38.242;2022-07-19T01:38:06;99620.59;;;14.02;72.35
58082;BME280;43876;55.576;38.242;2022-07-19T01:40:33;99611.94;;;13.97;72.85
58082;BME280;43876;55.576;38.242;2022-07-19T01:43:00;99602.34;;;13.94;72.52
58082;BME280;43876;55.576;38.242;2022-07-19T01:45:27;99624.06;;;14.05;72.51
58082;BME280;43876;55.576;38.242;2022-07-19T01:47:54;99600.59;;;13.91;72.17
58082;BME280;43876;55.576;38.242;2022-07-19T01:50:24;99631.91;;;14.07;72.07
58082;BME280;43876;55.576;38.242;2022-07-19T01:52:51;99612.69;;;14.05;72.12
58082;BME280;43876;55.576;38.242;2022-07-19T01:55:19;99622.09;;;14.20;71.73
58082;BME280;43876;55.576;38.242;2022-07-19T01:58:04;99631.69;;;14.22;71.55
58082;BME280;43876;55.576;38.242;2022-07-19T02:00:31;99626.44;;;14.22;71.20
58082;BME280;43876;55.576;38.242;2022-07-19T02:02:58;99580.25;;;14.09;71.03
58082;BME280;43876;55.576;38.242;2022-07-19T02:05:25;99627.91;;;14.40;70.35
58082;BME280;43876;55.576;38.242;2022-07-19T02:07:53;99630.38;;;14.49;70.56
58082;BME280;43876;55.576;38.242;2022-07-19T02:10:20;99617.28;;;14.46;70.11
58082;BME280;43876;55.576;38.242;2022-07-19T02:12:46;99609.25;;;14.57;69.83
58082;BME280;43876;55.576;38.242;2022-07-19T02:15:14;99627.53;;;14.65;69.32
58082;BME280;43876;55.576;38.242;2022-07-19T02:17:41;99617.81;;;14.70;69.11
58082;BME280;43876;55.576;38.242;2022-07-19T02:20:09;99589.78;;;14.69;68.49
58082;BME280;43876;55.576;38.242;2022-07-19T02:22:36;99640.88;;;15.04;68.14
58082;BME280;43876;55.576;38.242;2022-07-19T02:25:03;99631.38;;;15.85;65.97
58082;BME280;43876;55.576;38.242;2022-07-19T02:27:30;99646.53;;;18.41;58.50
58082;BME280;43876;55.576;38.242;2022-07-19T02:29:57;99624.66;;;20.97;51.10
58082;BME280;43876;55.576;38.242;2022-07-19T02:32:24;99602.22;;;22.75;46.17
58082;BME280;43876;55.576;38.242;2022-07-19T02:34:51;99616.59;;;24.37;42.92
58082;BME280;43876;55.576;38.242;2022-07-19T02:37:18;99619.00;;;25.61;39.61
58082;BME280;43876;55.576;38.242;2022-07-19T02:39:45;99628.47;;;26.50;37.63
58082;BME280;43876;55.576;38.242;2022-07-19T02:42:12;99625.06;;;27.41;35.83
58082;BME280;43876;55.576;38.242;2022-07-19T02:44:39;99626.66;;;28.18;34.15
58082;BME280;43876;55.576;38.242;2022-07-19T02:47:06;99616.09;;;28.76;32.82
58082;BME280;43876;55.576;38.242;2022-07-19T02:49:33;99586.66;;;28.86;32.11
58082;BME280;43876;55.576;38.242;2022-07-19T02:52:00;99622.25;;;29.59;31.38
58082;BME280;43876;55.576;38.242;2022-07-19T02:54:27;99611.44;;;30.38;29.78
58082;BME280;43876;55.576;38.242;2022-07-19T02:56:54;99596.03;;;30.61;29.14
58082;BME280;43876;55.576;38.242;2022-07-19T02:59:21;99622.66;;;31.38;27.85
58082;BME280;43876;55.576;38.242;2022-07-19T03:01:48;99612.81;;;31.79;27.19
58082;BME280;43876;55.576;38.242;2022-07-19T03:04:15;99622.59;;;32.21;26.44
58082;BME280;43876;55.576;38.242;2022-07-19T03:06:42;99620.84;;;32.70;25.71
58082;BME280;43876;55.576;38.242;2022-07-19T03:09:09;99580.53;;;32.77;25.28
58082;BME280;43876;55.576;38.242;2022-07-19T03:11:36;99614.78;;;33.25;24.83
58082;BME280;43876;55.576;38.242;2022-07-19T03:14:03;99612.84;;;33.55;24.26
58082;BME280;43876;55.576;38.242;2022-07-19T03:16:30;99620.09;;;33.92;24.09
58082;BME280;43876;55.576;38.242;2022-07-19T03:18:57;99625.81;;;34.44;23.02
58082;BME280;43876;55.576;38.242;2022-07-19T03:21:24;99612.09;;;34.81;22.75
58082;BME280;43876;55.576;38.242;2022-07-19T03:23:51;99613.38;;;35.39;21.70
58082;BME280;43876;55.576;38.242;2022-07-19T03:26:18;99621.75;;;35.80;21.80
58082;BME280;43876;55.576;38.242;2022-07-19T03:28:45;99626.72;;;36.36;20.91
58082;BME280;43876;55.576;38.242;2022-07-19T03:31:12;99620.31;;;36.78;20.56
58082;BME280;43876;55.576;38.242;2022-07-19T03:33:40;99623.38;;;36.91;20.19
58082;BME280;43876;55.576;38.242;2022-07-19T03:36:07;99628.91;;;37.55;19.76
58082;BME280;43876;55.576;38.242;2022-07-19T03:38:34;99627.84;;;38.51;18.56
58082;BME280;43876;55.576;38.242;2022-07-19T03:41:01;99613.56;;;38.87;18.33
58082;BME280;43876;55.576;38.242;2022-07-19T03:43:28;99620.25;;;40.12;17.13
58082;BME280;43876;55.576;38.242;2022-07-19T03:45:55;99627.41;;;40.28;16.33
58082;BME280;43876;55.576;38.242;2022-07-19T03:48:22;99620.59;;;37.57;18.91
58082;BME280;43876;55.576;38.242;2022-07-19T03:50:49;99622.59;;;34.13;22.60
58082;BME280;43876;55.576;38.242;2022-07-19T03:53:16;99614.34;;;31.20;25.82
58082;BME280;43876;55.576;38.242;2022-07-19T03:55:43;99615.88;;;29.26;28.38
58082;BME280;43876;55.576;38.242;2022-07-19T03:58:10;99624.69;;;27.96;30.42
58082;BME280;43876;55.576;38.242;2022-07-19T04:00:37;99619.34;;;27.20;32.05
58082;BME280;43876;55.576;38.242;2022-07-19T04:03:04;99624.88;;;26.51;33.10
58082;BME280;43876;55.576;38.242;2022-07-19T04:05:32;99624.63;;;25.85;34.29
58082;BME280;43876;55.576;38.242;2022-07-19T04:07:59;99589.66;;;25.17;34.87
58082;BME280;43876;55.576;38.242;2022-07-19T04:10:26;99619.25;;;25.13;35.51
58082;BME280;43876;55.576;38.242;2022-07-19T04:12:53;99638.59;;;25.03;35.95
58082;BME280;43876;55.576;38.242;2022-07-19T04:15:20;99613.16;;;24.81;36.12
58082;BME280;43876;55.576;38.242;2022-07-19T04:17:47;99619.56;;;24.79;36.02
58082;BME280;43876;55.576;38.242;2022-07-19T04:20:14;99630.97;;;24.35;37.19
58082;BME280;43876;55.576;38.242;2022-07-19T04:22:41;99632.00;;;24.00;38.03
58082;BME280;43876;55.576;38.242;2022-07-19T04:25:08;99629.25;;;23.52;38.48
58082;BME280;43876;55.576;38.242;2022-07-19T04:27:36;99637.59;;;23.29;39.44
58082;BME280;43876;55.576;38.242;2022-07-19T04:30:04;99627.50;;;23.69;38.39
58082;BME280;43876;55.576;38.242;2022-07-19T04:32:32;99634.19;;;24.09;37.93
58082;BME280;43876;55.576;38.242;2022-07-19T04:35:00;99632.91;;;23.67;38.62
58082;BME280;43876;55.576;38.242;2022-07-19T04:37:28;99624.75;;;23.37;39.16
58082;BME280;43876;55.576;38.242;2022-07-19T04:39:55;99630.25;;;22.99;39.91
58082;BME280;43876;55.576;38.242;2022-07-19T04:42:22;99639.94;;;22.48;40.83
58082;BME280;43876;55.576;38.242;2022-07-19T04:44:49;99618.25;;;22.00;41.69
58082;BME280;43876;55.576;38.242;2022-07-19T04:47:16;99648.34;;;22.20;41.76
58082;BME280;43876;55.576;38.242;2022-07-19T04:49:43;99639.88;;;22.12;42.03
58082;BME280;43876;55.576;38.242;2022-07-19T04:52:10;99641.66;;;22.49;41.35
58082;BME280;43876;55.576;38.242;2022-07-19T04:54:37;99653.53;;;22.78;40.94
58082;BME280;43876;55.576;38.242;2022-07-19T04:57:07;99602.44;;;22.53;40.81
58082;BME280;43876;55.576;38.242;2022-07-19T04:59:34;99636.13;;;22.88;40.54
58082;BME280;43876;55.576;38.242;2022-07-19T05:02:01;99638.19;;;23.18;40.17
58082;BME280;43876;55.576;38.242;2022-07-19T05:04:28;99638.66;;;23.09;40.38
58082;BME280;43876;55.576;38.242;2022-07-19T05:07:00;99608.88;;;22.83;40.48
58082;BME280;43876;55.576;38.242;2022-07-19T05:09:28;99648.31;;;22.58;41.36
58082;BME280;43876;55.576;38.242;2022-07-19T05:11:56;99647.50;;;22.38;41.86
58082;BME280;43876;55.576;38.242;2022-07-19T05:14:23;99604.78;;;22.41;41.70
58082;BME280;43876;55.576;38.242;2022-07-19T05:16:50;99637.44;;;22.80;41.22
58082;BME280;43876;55.576;38.242;2022-07-19T05:19:17;99643.59;;;23.17;40.44
58082;BME280;43876;55.576;38.242;2022-07-19T05:21:45;99632.94;;;23.17;40.17
58082;BME280;43876;55.576;38.242;2022-07-19T05:24:12;99637.00;;;22.89;40.22
58082;BME280;43876;55.576;38.242;2022-07-19T05:26:39;99638.44;;;22.42;41.24
58082;BME280;43876;55.576;38.242;2022-07-19T05:29:06;99643.81;;;22.22;40.97
58082;BME280;43876;55.576;38.242;2022-07-19T05:31:33;99619.69;;;22.07;41.28
58082;BME280;43876;55.576;38.242;2022-07-19T05:34:01;99631.25;;;22.06;41.21
58082;BME280;43876;55.576;38.242;2022-07-19T05:36:28;99643.63;;;21.88;41.94
58082;BME280;43876;55.576;38.242;2022-07-19T05:38:55;99649.81;;;22.08;41.37
58082;BME280;43876;55.576;38.242;2022-07-19T05:41:22;99653.59;;;21.64;41.58
58082;BME280;43876;55.576;38.242;2022-07-19T05:43:51;99643.53;;;21.52;42.23
58082;BME280;43876;55.576;38.242;2022-07-19T05:46:18;99618.19;;;21.64;42.05
58082;BME280;43876;55.576;38.242;2022-07-19T05:48:46;99650.38;;;21.58;42.14
58082;BME280;43876;55.576;38.242;2022-07-19T05:51:14;99644.28;;;21.15;42.78
58082;BME280;43876;55.576;38.242;2022-07-19T05:53:42;99587.06;;;20.87;42.76
58082;BME280;43876;55.576;38.242;2022-07-19T05:56:09;99624.97;;;20.69;43.42
58082;BME280;43876;55.576;38.242;2022-07-19T05:58:37;99626.00;;;20.86;43.46
58082;BME280;43876;55.576;38.242;2022-07-19T06:01:04;99629.50;;;21.28;42.46
58082;BME280;43876;55.576;38.242;2022-07-19T06:03:51;99643.56;;;21.71;41.72
58082;BME280;43876;55.576;38.242;2022-07-19T06:06:27;99637.69;;;22.20;40.79
58082;BME280;43876;55.576;38.242;2022-07-19T06:08:54;99641.53;;;22.14;39.81
58082;BME280;43876;55.576;38.242;2022-07-19T06:11:23;99635.19;;;22.17;40.59
58082;BME280;43876;55.576;38.242;2022-07-19T06:13:50;99633.56;;;22.33;40.27
58082;BME280;43876;55.576;38.242;2022-07-19T06:16:18;99620.25;;;22.14;40.30
58082;BME280;43876;55.576;38.242;2022-07-19T06:18:47;99630.50;;;21.85;40.73
58082;BME280;43876;55.576;38.242;2022-07-19T06:21:16;99651.00;;;21.63;41.25
58082;BME280;43876;55.576;38.242;2022-07-19T06:23:44;99627.38;;;21.76;41.16
58082;BME280;43876;55.576;38.242;2022-07-19T06:26:12;99645.66;;;21.83;41.24
58082;BME280;43876;55.576;38.242;2022-07-19T06:28:40;99651.28;;;21.57;41.30
58082;BME280;43876;55.576;38.242;2022-07-19T06:31:08;99628.69;;;21.46;41.17
58082;BME280;43876;55.576;38.242;2022-07-19T06:33:38;99620.06;;;21.62;40.90
58082;BME280;43876;55.576;38.242;2022-07-19T06:36:06;99645.69;;;21.63;40.89
58082;BME280;43876;55.576;38.242;2022-07-19T06:38:33;99639.28;;;21.48;40.78
58082;BME280;43876;55.576;38.242;2022-07-19T06:41:00;99647.84;;;21.74;40.71
58082;BME280;43876;55.576;38.242;2022-07-19T06:43:27;99638.38;;;21.87;40.68
58082;BME280;43876;55.576;38.242;2022-07-19T06:45:55;99649.44;;;21.78;40.49
58082;BME280;43876;55.576;38.242;2022-07-19T06:48:22;99644.41;;;21.72;40.53
58082;BME280;43876;55.576;38.242;2022-07-19T06:50:49;99583.34;;;21.51;40.19
58082;BME280;43876;55.576;38.242;2022-07-19T06:53:17;99647.06;;;21.91;39.89
58082;BME280;43876;55.576;38.242;2022-07-19T06:55:43;99628.59;;;22.06;39.74
58082;BME280;43876;55.576;38.242;2022-07-19T06:58:11;99631.34;;;21.86;39.86
58082;BME280;43876;55.576;38.242;2022-07-19T07:00:39;99635.28;;;21.58;40.72
58082;BME280;43876;55.576;38.242;2022-07-19T07:03:06;99627.16;;;21.42;41.52
58082;BME280;43876;55.576;38.242;2022-07-19T07:05:33;99595.78;;;21.10;41.98
58082;BME280;43876;55.576;38.242;2022-07-19T07:08:01;99618.75;;;21.52;41.28
58082;BME280;43876;55.576;38.242;2022-07-19T07:10:28;99640.63;;;21.77;40.40
58082;BME280;43876;55.576;38.242;2022-07-19T07:12:55;99608.13;;;21.71;40.09
58082;BME280;43876;55.576;38.242;2022-07-19T07:15:22;99612.16;;;21.79;40.18
58082;BME280;43876;55.576;38.242;2022-07-19T07:17:49;99638.53;;;22.03;40.44
58082;BME280;43876;55.576;38.242;2022-07-19T07:20:16;99601.50;;;21.98;40.10
58082;BME280;43876;55.576;38.242;2022-07-19T07:22:43;99653.13;;;21.94;40.79
58082;BME280;43876;55.576;38.242;2022-07-19T07:25:10;99639.22;;;22.06;40.39
58082;BME280;43876;55.576;38.242;2022-07-19T07:27:37;99627.69;;;22.26;38.65
58082;BME280;43876;55.576;38.242;2022-07-19T07:30:06;99623.63;;;22.37;38.79
58082;BME280;43876;55.576;38.242;2022-07-19T07:32:33;99643.41;;;22.67;37.93
58082;BME280;43876;55.576;38.242;2022-07-19T07:35:00;99647.88;;;22.84;38.08
58082;BME280;43876;55.576;38.242;2022-07-19T07:37:28;99653.53;;;22.96;38.09
58082;BME280;43876;55.576;38.242;2022-07-19T07:39:55;99652.25;;;22.68;38.56
58082;BME280;43876;55.576;38.242;2022-07-19T07:42:22;99663.91;;;22.29;39.17
58082;BME280;43876;55.576;38.242;2022-07-19T07:44:52;99646.56;;;21.82;39.74
58082;BME280;43876;55.576;38.242;2022-07-19T07:47:20;99656.88;;;21.51;40.32
58082;BME280;43876;55.576;38.242;2022-07-19T07:49:47;99647.50;;;21.81;40.15
58082;BME280;43876;55.576;38.242;2022-07-19T07:52:16;99648.06;;;22.45;39.33
58082;BME280;43876;55.576;38.242;2022-07-19T07:54:43;99649.84;;;22.98;38.91
58082;BME280;43876;55.576;38.242;2022-07-19T07:57:30;99650.00;;;23.30;37.84
58082;BME280;43876;55.576;38.242;2022-07-19T07:59:58;99641.22;;;23.61;37.35
58082;BME280;43876;55.576;38.242;2022-07-19T08:02:25;99557.91;;;23.08;37.33
58082;BME280;43876;55.576;38.242;2022-07-19T08:04:52;99637.09;;;23.05;37.83
58082;BME280;43876;55.576;38.242;2022-07-19T08:07:20;99645.63;;;22.40;38.57
58082;BME280;43876;55.576;38.242;2022-07-19T08:09:49;99665.47;;;21.95;39.37
58082;BME280;43876;55.576;38.242;2022-07-19T08:12:16;99643.03;;;22.20;39.36
58082;BME280;43876;55.576;38.242;2022-07-19T08:14:43;99640.41;;;22.56;38.54
58082;BME280;43876;55.576;38.242;2022-07-19T08:17:10;99636.53;;;23.16;37.67
58082;BME280;43876;55.576;38.242;2022-07-19T08:19:38;99665.91;;;23.49;36.68
58082;BME280;43876;55.576;38.242;2022-07-19T08:22:05;99619.69;;;22.98;36.67
58082;BME280;43876;55.576;38.242;2022-07-19T08:24:32;99653.63;;;23.12;37.03
58082;BME280;43876;55.576;38.242;2022-07-19T08:26:59;99657.34;;;22.73;37.02
58082;BME280;43876;55.576;38.242;2022-07-19T08:29:26;99672.94;;;22.80;35.92
58082;BME280;43876;55.576;38.242;2022-07-19T08:31:53;99663.72;;;23.05;34.99
58082;BME280;43876;55.576;38.242;2022-07-19T08:34:20;99628.28;;;22.68;34.98
58082;BME280;43876;55.576;38.242;2022-07-19T08:36:47;99607.59;;;22.19;35.99
58082;BME280;43876;55.576;38.242;2022-07-19T08:39:14;99615.97;;;22.31;36.08
58082;BME280;43876;55.576;38.242;2022-07-19T08:41:45;99656.38;;;22.56;36.43
58082;BME280;43876;55.576;38.242;2022-07-19T08:44:14;99657.63;;;22.49;36.39
58082;BME280;43876;55.576;38.242;2022-07-19T08:46:43;99674.53;;;22.48;36.00
58082;BME280;43876;55.576;38.242;2022-07-19T08:49:11;99656.38;;;22.56;35.62
58082;BME280;43876;55.576;38.242;2022-07-19T08:51:38;99629.38;;;22.64;34.82
58082;BME280;43876;55.576;38.242;2022-07-19T08:54:06;99620.00;;;23.26;34.53
58082;BME280;43876;55.576;38.242;2022-07-19T08:56:33;99657.47;;;23.57;34.50
58082;BME280;43876;55.576;38.242;2022-07-19T08:59:22;99625.66;;;23.54;34.50
58082;BME280;43876;55.576;38.242;2022-07-19T09:01:49;99647.63;;;23.41;34.46
58082;BME280;43876;55.576;38.242;2022-07-19T09:04:19;99655.34;;;23.13;35.10
58082;BME280;43876;55.576;38.242;2022-07-19T09:06:49;99645.78;;;22.74;34.64
58082;BME280;43876;55.576;38.242;2022-07-19T09:09:18;99651.38;;;22.50;35.29
58082;BME280;43876;55.576;38.242;2022-07-19T09:11:47;99662.38;;;22.42;35.87
58082;BME280;43876;55.576;38.242;2022-07-19T09:19:18;99615.28;;;22.44;36.22
58082;BME280;43876;55.576;38.242;2022-07-19T09:24:47;99606.25;;;22.29;35.84
58082;BME280;43876;55.576;38.242;2022-07-19T09:27:21;99617.59;;;22.33;35.74
58082;BME280;43876;55.576;38.242;2022-07-19T09:29:54;99630.97;;;22.32;35.89
58082;BME280;43876;55.576;38.242;2022-07-19T09:32:24;99612.41;;;22.11;36.19
58082;BME280;43876;55.576;38.242;2022-07-19T09:34:58;99635.94;;;22.39;35.44
58082;BME280;43876;55.576;38.242;2022-07-19T09:37:29;99554.91;;;22.08;35.02
58082;BME280;43876;55.576;38.242;2022-07-19T09:40:00;99622.22;;;23.01;34.44
58082;BME280;43876;55.576;38.242;2022-07-19T09:42:44;99586.63;;;22.67;34.10
58082;BME280;43876;55.576;38.242;2022-07-19T09:45:13;99601.78;;;22.47;33.70
58082;BME280;43876;55.576;38.242;2022-07-19T09:47:48;99603.31;;;22.70;33.26
58082;BME280;43876;55.576;38.242;2022-07-19T09:50:40;99599.41;;;22.95;33.13
58082;BME280;43876;55.576;38.242;2022-07-19T09:53:08;99618.06;;;23.13;33.54
58082;BME280;43876;55.576;38.242;2022-07-19T09:55:36;99628.06;;;23.58;32.80
58082;BME280;43876;55.576;38.242;2022-07-19T09:58:04;99615.78;;;24.05;32.48
58082;BME280;43876;55.576;38.242;2022-07-19T10:00:31;99620.63;;;24.28;31.95
58082;BME280;43876;55.576;38.242;2022-07-19T10:03:00;99613.06;;;24.37;31.17
58082;BME280;43876;55.576;38.242;2022-07-19T10:05:28;99618.50;;;24.19;31.91
58082;BME280;43876;55.576;38.242;2022-07-19T10:07:58;99612.38;;;24.17;30.86
58082;BME280;43876;55.576;38.242;2022-07-19T10:10:25;99562.09;;;23.79;31.37
58082;BME280;43876;55.576;38.242;2022-07-19T10:12:58;99621.78;;;23.92;31.92
58082;BME280;43876;55.576;38.242;2022-07-19T10:15:26;99588.00;;;23.60;32.40
58082;BME280;43876;55.576;38.242;2022-07-19T10:18:03;99602.03;;;23.30;32.59
58082;BME280;43876;55.576;38.242;2022-07-19T10:20:32;99624.97;;;23.17;33.05
58082;BME280;43876;55.576;38.242;2022-07-19T10:23:02;99602.13;;;22.94;33.15
58082;BME280;43876;55.576;38.242;2022-07-19T10:25:37;99618.53;;;23.03;33.40
58082;BME280;43876;55.576;38.242;2022-07-19T10:28:05;99598.31;;;23.17;31.70
58082;BME280;43876;55.576;38.242;2022-07-19T10:30:40;99596.13;;;23.07;31.74
58082;BME280;43876;55.576;38.242;2022-07-19T10:33:27;99608.31;;;22.94;31.93
58082;BME280;43876;55.576;38.242;2022-07-19T10:35:54;99618.63;;;23.02;31.90
58082;BME280;43876;55.576;38.242;2022-07-19T10:38:24;99604.25;;;23.22;31.64
58082;BME280;43876;55.576;38.242;2022-07-19T10:40:53;99622.03;;;23.55;31.94
58082;BME280;43876;55.576;38.242;2022-07-19T10:43:24;99612.69;;;23.30;32.85
58082;BME280;43876;55.576;38.242;2022-07-19T10:56:56;99577.31;;;23.77;32.70
58082;BME280;43876;55.576;38.242;2022-07-19T10:59:35;99617.03;;;23.48;33.26
58082;BME280;43876;55.576;38.242;2022-07-19T11:02:06;99621.47;;;23.32;33.35
58082;BME280;43876;55.576;38.242;2022-07-19T11:04:54;99600.75;;;23.37;33.84
58082;BME280;43876;55.576;38.242;2022-07-19T11:07:23;99612.00;;;23.60;33.87
58082;BME280;43876;55.576;38.242;2022-07-19T11:09:53;99620.84;;;23.60;33.71
58082;BME280;43876;55.576;38.242;2022-07-19T11:12:34;99621.88;;;23.58;33.49
58082;BME280;43876;55.576;38.242;2022-07-19T11:15:05;99607.94;;;23.52;33.23
58082;BME280;43876;55.576;38.242;2022-07-19T11:18:10;99613.59;;;23.46;32.94
58082;BME280;43876;55.576;38.242;2022-07-19T11:20:37;99616.09;;;23.49;33.04
58082;BME280;43876;55.576;38.242;2022-07-19T11:23:04;99620.63;;;23.81;32.89
58082;BME280;43876;55.576;38.242;2022-07-19T11:25:34;99575.69;;;23.57;32.48
58082;BME280;43876;55.576;38.242;2022-07-19T11:28:20;99606.56;;;23.61;33.01
58082;BME280;43876;55.576;38.242;2022-07-19T11:30:48;99611.03;;;23.61;32.94
58082;BME280;43876;55.576;38.242;2022-07-19T11:33:18;99561.44;;;23.25;33.17
58082;BME280;43876;55.576;38.242;2022-07-19T11:35:56;99610.91;;;23.46;33.54
58082;BME280;43876;55.576;38.242;2022-07-19T11:38:39;99567.75;;;22.89;34.27
58082;BME280;43876;55.576;38.242;2022-07-19T11:41:28;99619.22;;;23.07;34.75
58082;BME280;43876;55.576;38.242;2022-07-19T11:44:07;99626.50;;;23.21;35.09
58082;BME280;43876;55.576;38.242;2022-07-19T11:46:36;99574.19;;;23.02;35.08
58082;BME280;43876;55.576;38.242;2022-07-19T11:49:10;99628.38;;;23.01;35.52
58082;BME280;43876;55.576;38.242;2022-07-19T11:51:39;99621.28;;;23.02;35.49
58082;BME280;43876;55.576;38.242;2022-07-19T11:54:06;99628.16;;;23.23;35.56
58082;BME280;43876;55.576;38.242;2022-07-19T11:56:35;99614.63;;;23.44;35.87
58082;BME280;43876;55.576;38.242;2022-07-19T11:59:05;99630.09;;;23.70;35.67
58082;BME280;43876;55.576;38.242;2022-07-19T12:01:36;99624.44;;;23.59;35.54
58082;BME280;43876;55.576;38.242;2022-07-19T12:04:07;99621.44;;;23.65;35.57
58082;BME280;43876;55.576;38.242;2022-07-19T12:06:42;99613.19;;;23.70;35.44
58082;BME280;43876;55.576;38.242;2022-07-19T12:09:12;99613.38;;;23.67;34.40
58082;BME280;43876;55.576;38.242;2022-07-19T12:11:42;99609.53;;;23.73;34.48
58082;BME280;43876;55.576;38.242;2022-07-19T12:17:14;99599.56;;;24.08;33.90
58082;BME280;43876;55.576;38.242;2022-07-19T12:19:44;99588.38;;;24.17;34.18
58082;BME280;43876;55.576;38.242;2022-07-19T12:22:35;99601.38;;;24.23;33.98
58082;BME280;43876;55.576;38.242;2022-07-19T12:25:04;99612.91;;;24.08;34.66
58082;BME280;43876;55.576;38.242;2022-07-19T12:27:32;99560.56;;;23.58;34.00
58082;BME280;43876;55.576;38.242;2022-07-19T12:30:00;99599.34;;;23.47;34.70
58082;BME280;43876;55.576;38.242;2022-07-19T12:32:38;99597.31;;;23.35;35.91
58082;BME280;43876;55.576;38.242;2022-07-19T12:35:08;99591.63;;;23.25;35.64
58082;BME280;43876;55.576;38.242;2022-07-19T12:37:40;99552.72;;;23.39;35.25
58082;BME280;43876;55.576;38.242;2022-07-19T12:40:18;99587.78;;;23.96;34.70
58082;BME280;43876;55.576;38.242;2022-07-19T12:45:33;99582.69;;;24.23;33.25
58082;BME280;43876;55.576;38.242;2022-07-19T12:48:01;99559.81;;;24.03;32.63
58082;BME280;43876;55.576;38.242;2022-07-19T12:50:34;99576.22;;;24.27;31.99
58082;BME280;43876;55.576;38.242;2022-07-19T12:53:04;99594.13;;;24.25;32.23
58082;BME280;43876;55.576;38.242;2022-07-19T12:55:32;99548.78;;;24.25;32.24
58082;BME280;43876;55.576;38.242;2022-07-19T12:58:00;99587.69;;;24.29;32.56
58082;BME280;43876;55.576;38.242;2022-07-19T13:00:29;99542.69;;;23.91;33.05
58082;BME280;43876;55.576;38.242;2022-07-19T13:02:57;99573.13;;;23.71;33.80
58082;BME280;43876;55.576;38.242;2022-07-19T13:05:24;99595.97;;;23.44;34.51
58082;BME280;43876;55.576;38.242;2022-07-19T13:07:52;99577.56;;;23.39;34.51
58082;BME280;43876;55.576;38.242;2022-07-19T13:10:19;99584.19;;;23.48;34.57
58082;BME280;43876;55.576;38.242;2022-07-19T13:12:47;99557.88;;;23.42;34.14
58082;BME280;43876;55.576;38.242;2022-07-19T13:15:14;99589.25;;;23.86;34.03
58082;BME280;43876;55.576;38.242;2022-07-19T13:17:43;99576.59;;;24.05;32.99
58082;BME280;43876;55.576;38.242;2022-07-19T13:20:10;99597.22;;;24.18;32.97
58082;BME280;43876;55.576;38.242;2022-07-19T13:22:38;99516.81;;;23.78;32.77
58082;BME280;43876;55.576;38.242;2022-07-19T13:25:07;99577.19;;;24.10;32.59